(°C)
16°
15°
14°
13°
11°
10°
(°C)
13°
12°
12°
10°
SSE
SSE
SSE
SSE
SSE
SSE
SSE
(km/h)
6-8
6-8
5-8
4-7
4-10
4-11
4-12
(mm)
0
0
0
0
0
0
0
(%)
0
0
0
0
0
0
0

Elevazione del sole

/ 24.9°
sun-icon
UV 5
06:47
20:09
Luna calante (341°)
06:38
18:26

METAR per Rothenburg (LSME)

Ora Condizioni Temperatura/
Punto di rugiada
Vento Visibilità Tempo Nuvole Pressione Cambiamento Grezzo
16°C / 5°C variable 3kt - Few Clouds 7400ft 1013 - LSME 101450Z AUTO VRB03KT 9999NDV FEW074 16/05 Q1013 RMK
17°C / 4°C variable 0kt - Scattered Clouds 7300ft 1013 - LSME 101420Z AUTO 00000KT 9999NDV SCT073 17/04 Q1013 RMK
16°C / 4°C variable 3kt - Scattered Clouds 7000ft 1014 - LSME 101350Z AUTO VRB03KT 9999NDV SCT070 16/04 Q1014 RMK
16°C / 2°C variable 1kt - Few Clouds 18000ft 1014 - LSME 101320Z AUTO VRB01KT 9999NDV FEW180 16/02 Q1014 RMK
15°C / 3°C variable 1kt - Few Clouds 19000ft 1014 - LSME 101250Z AUTO VRB01KT 9999NDV FEW190 15/03 Q1014 RMK
15°C / 4°C variable 2kt - Few Clouds 10000ft 1014 - LSME 101220Z AUTO VRB02KT 9999NDV FEW100 15/04 Q1014 RMK
14°C / 4°C variable 1kt - Clear 1015 - LSME 101150Z AUTO VRB01KT 9999NDV NCD 14/04 Q1015 RMK
14°C / 3°C variable 1kt - Clear 1015 - LSME 101120Z AUTO VRB01KT 9999NDV NCD 14/03 Q1015 RMK
13°C / 4°C variable 2kt - Scattered Clouds 9300ft 1016 - LSME 101050Z AUTO VRB02KT 9999NDV SCT093 13/04 Q1016 RMK
12°C / 4°C variable 1kt - Broken Clouds 8700ft 1016 - LSME 101020Z AUTO VRB01KT 9999NDV BKN087 12/04 Q1016 RMK
12°C / 5°C variable 2kt - Scattered Clouds 8500ft 1016 - LSME 100950Z AUTO VRB02KT 9999NDV SCT085 12/05 Q1016 RMK
11°C / 4°C variable 0kt - Scattered Clouds 8300ft 1017 - LSME 100920Z AUTO 00000KT 9999NDV SCT083 BKN099 11/04 Q1017 RMK
10°C / 4°C variable 0kt - Scattered Clouds 8700ft 1017 - LSME 100850Z AUTO 00000KT 9999NDV SCT087 10/04 Q1017 RMK
10°C / 4°C variable 0kt - Few Clouds 5500ft 1017 - LSME 100820Z AUTO 00000KT 9999NDV FEW055 BKN084 10/04 Q1017 RMK
9°C / 4°C variable 1kt - Few Clouds 3700ft 1017 - LSME 100750Z AUTO VRB01KT 9999NDV FEW037 SCT059 BKN079 09/04 Q1017 RMK
9°C / 3°C variable 0kt - Overcast 5700ft 1017 - LSME 100720Z AUTO 00000KT 9999NDV OVC057 09/03 Q1017 RMK
7°C / 4°C variable 0kt - Overcast 6000ft 1017 - LSME 100650Z AUTO 00000KT 9999NDV OVC060 07/04 Q1017 RMK
6°C / 3°C variable 1kt Light Rain Overcast 6400ft 1017 - LSME 100620Z AUTO VRB01KT 9999NDV -RA OVC064 06/03 Q1017 RMK
7°C / 3°C variable 2kt - Overcast 6800ft 1017 - LSME 100550Z AUTO VRB02KT 9999NDV OVC068 07/03 Q1017 RMK
5°C / 2°C variable 0kt - Broken Clouds 7300ft 1017 - LSME 100520Z AUTO 00000KT 9999NDV BKN073 OVC084 05/02 Q1017 RMK
5°C / 2°C variable 0kt - Scattered Clouds 9100ft 1016 - LSME 100450Z AUTO 00000KT 9999NDV SCT091 OVC110 05/02 Q1016 RMK
5°C / 2°C variable 0kt - Few Clouds 9700ft 1016 - LSME 100420Z AUTO 00000KT 9999NDV FEW097 OVC110 05/02 Q1016 RMK
5°C / 2°C variable 0kt - Broken Clouds 9300ft 1016 - LSME 100350Z AUTO 00000KT 9999NDV BKN093 BKN110 05/02 Q1016 RMK
6°C / 2°C variable 0kt - Few Clouds 11000ft 1016 - LSME 100320Z AUTO 00000KT 9999NDV FEW110 SCT140 06/02 Q1016 RMK

16°C / 5°C

[Più]
Vento variable 3kt
Visibilità
Tempo -
Nuvole Few Clouds 7400ft
Pressione 1013
Cambiamento -
Grezzo LSME 101450Z AUTO VRB03KT 9999NDV FEW074 16/05 Q1013 RMK

17°C / 4°C

[Più]
Vento variable 0kt
Visibilità
Tempo -
Nuvole Scattered Clouds 7300ft
Pressione 1013
Cambiamento -
Grezzo LSME 101420Z AUTO 00000KT 9999NDV SCT073 17/04 Q1013 RMK

16°C / 4°C

[Più]
Vento variable 3kt
Visibilità
Tempo -
Nuvole Scattered Clouds 7000ft
Pressione 1014
Cambiamento -
Grezzo LSME 101350Z AUTO VRB03KT 9999NDV SCT070 16/04 Q1014 RMK

16°C / 2°C

[Più]
Vento variable 1kt
Visibilità
Tempo -
Nuvole Few Clouds 18000ft
Pressione 1014
Cambiamento -
Grezzo LSME 101320Z AUTO VRB01KT 9999NDV FEW180 16/02 Q1014 RMK

15°C / 3°C

[Più]
Vento variable 1kt
Visibilità
Tempo -
Nuvole Few Clouds 19000ft
Pressione 1014
Cambiamento -
Grezzo LSME 101250Z AUTO VRB01KT 9999NDV FEW190 15/03 Q1014 RMK

15°C / 4°C

[Più]
Vento variable 2kt
Visibilità
Tempo -
Nuvole Few Clouds 10000ft
Pressione 1014
Cambiamento -
Grezzo LSME 101220Z AUTO VRB02KT 9999NDV FEW100 15/04 Q1014 RMK

14°C / 4°C

[Più]
Vento variable 1kt
Visibilità
Tempo -
Nuvole Clear
Pressione 1015
Cambiamento -
Grezzo LSME 101150Z AUTO VRB01KT 9999NDV NCD 14/04 Q1015 RMK

14°C / 3°C

[Più]
Vento variable 1kt
Visibilità
Tempo -
Nuvole Clear
Pressione 1015
Cambiamento -
Grezzo LSME 101120Z AUTO VRB01KT 9999NDV NCD 14/03 Q1015 RMK

13°C / 4°C

[Più]
Vento variable 2kt
Visibilità
Tempo -
Nuvole Scattered Clouds 9300ft
Pressione 1016
Cambiamento -
Grezzo LSME 101050Z AUTO VRB02KT 9999NDV SCT093 13/04 Q1016 RMK

12°C / 4°C

[Più]
Vento variable 1kt
Visibilità
Tempo -
Nuvole Broken Clouds 8700ft
Pressione 1016
Cambiamento -
Grezzo LSME 101020Z AUTO VRB01KT 9999NDV BKN087 12/04 Q1016 RMK

12°C / 5°C

[Più]
Vento variable 2kt
Visibilità
Tempo -
Nuvole Scattered Clouds 8500ft
Pressione 1016
Cambiamento -
Grezzo LSME 100950Z AUTO VRB02KT 9999NDV SCT085 12/05 Q1016 RMK

11°C / 4°C

[Più]
Vento variable 0kt
Visibilità
Tempo -
Nuvole Scattered Clouds 8300ft
Pressione 1017
Cambiamento -
Grezzo LSME 100920Z AUTO 00000KT 9999NDV SCT083 BKN099 11/04 Q1017 RMK

10°C / 4°C

[Più]
Vento variable 0kt
Visibilità
Tempo -
Nuvole Scattered Clouds 8700ft
Pressione 1017
Cambiamento -
Grezzo LSME 100850Z AUTO 00000KT 9999NDV SCT087 10/04 Q1017 RMK

10°C / 4°C

[Più]
Vento variable 0kt
Visibilità
Tempo -
Nuvole Few Clouds 5500ft
Pressione 1017
Cambiamento -
Grezzo LSME 100820Z AUTO 00000KT 9999NDV FEW055 BKN084 10/04 Q1017 RMK

9°C / 4°C

[Più]
Vento variable 1kt
Visibilità
Tempo -
Nuvole Few Clouds 3700ft
Pressione 1017
Cambiamento -
Grezzo LSME 100750Z AUTO VRB01KT 9999NDV FEW037 SCT059 BKN079 09/04 Q1017 RMK

9°C / 3°C

[Più]
Vento variable 0kt
Visibilità
Tempo -
Nuvole Overcast 5700ft
Pressione 1017
Cambiamento -
Grezzo LSME 100720Z AUTO 00000KT 9999NDV OVC057 09/03 Q1017 RMK

7°C / 4°C

[Più]
Vento variable 0kt
Visibilità
Tempo -
Nuvole Overcast 6000ft
Pressione 1017
Cambiamento -
Grezzo LSME 100650Z AUTO 00000KT 9999NDV OVC060 07/04 Q1017 RMK

6°C / 3°C

[Più]
Vento variable 1kt
Visibilità
Tempo Light Rain
Nuvole Overcast 6400ft
Pressione 1017
Cambiamento -
Grezzo LSME 100620Z AUTO VRB01KT 9999NDV -RA OVC064 06/03 Q1017 RMK

7°C / 3°C

[Più]
Vento variable 2kt
Visibilità
Tempo -
Nuvole Overcast 6800ft
Pressione 1017
Cambiamento -
Grezzo LSME 100550Z AUTO VRB02KT 9999NDV OVC068 07/03 Q1017 RMK

5°C / 2°C

[Più]
Vento variable 0kt
Visibilità
Tempo -
Nuvole Broken Clouds 7300ft
Pressione 1017
Cambiamento -
Grezzo LSME 100520Z AUTO 00000KT 9999NDV BKN073 OVC084 05/02 Q1017 RMK

5°C / 2°C

[Più]
Vento variable 0kt
Visibilità
Tempo -
Nuvole Scattered Clouds 9100ft
Pressione 1016
Cambiamento -
Grezzo LSME 100450Z AUTO 00000KT 9999NDV SCT091 OVC110 05/02 Q1016 RMK

5°C / 2°C

[Più]
Vento variable 0kt
Visibilità
Tempo -
Nuvole Few Clouds 9700ft
Pressione 1016
Cambiamento -
Grezzo LSME 100420Z AUTO 00000KT 9999NDV FEW097 OVC110 05/02 Q1016 RMK

5°C / 2°C

[Più]
Vento variable 0kt
Visibilità
Tempo -
Nuvole Broken Clouds 9300ft
Pressione 1016
Cambiamento -
Grezzo LSME 100350Z AUTO 00000KT 9999NDV BKN093 BKN110 05/02 Q1016 RMK

6°C / 2°C

[Più]
Vento variable 0kt
Visibilità
Tempo -
Nuvole Few Clouds 11000ft
Pressione 1016
Cambiamento -
Grezzo LSME 100320Z AUTO 00000KT 9999NDV FEW110 SCT140 06/02 Q1016 RMK

Tempo in atto per Rothenburg: immagine satellitare e pioggia, Svizzera

  • Precipitazioni:
  • <1 mm
  • 1-2 mm
  • 2-5 mm
  • >5 mm

Il segnaposto è situato a Rothenburg. [Più]

L'immagine satellitare in tempo reale combina la luce visibile durante il giorno con la radiazione infrarossa durante la notte. Di notte l'immagine non è scura poiché i raggi infrarossi possono rilevare differenze di temperatura. Purtroppo, le nuvole basse e la nebbia sono difficili da distinguere dalla temperatura del suolo e possono pertanto essere quasi invisibili durante la notte. Le immagini satellitari Meteosat per l'Europa vengono aggiornate in tempo reale ogni 5 minuti. Le immagini GOES-16 / GOES-17 (Nord e Sud America) e Himawari (Asia) vengono aggiornate ogni 10 minuti.

Le precipitazioni sono stimate da radar e satellite. Una precipitazione notturna stimata da satellite è meno accurata di una diurna. Le croci arancioni identificano i fulmini caduti (in Europa).

Copyright 2021 EUMETSAT / meteoblue. Fulminazioni fornite da nowcast.

Radar e nowcasting per Rothenburg

Il segnaposto è situato a Rothenburg. Questa animazione mostra il radar delle precipitazioni per l'ultima ora, nonché una previsione 1h. Il radar può non individuare correttamente pioviggine o nevischio. L’intensità delle precipitazioni è associata a una scala di colori, dal blu chiaro fino al viola scuro.

Situazione meteo attuale e allerta

EUMETNET – MeteoAlarm

pictomap

Fonte: MeteoSwiss

Sono possibili ritardi tra questo sito e www.meteoalarm.eu: per avere informazioni sempre aggiornate sui livelli d'allerta come pubblicati dai Servizi Meteorologici Nazionali, visitate www.meteoalarm.eu.